createdAt,value
2022-11-25T00:01:34.336Z,3.97
2022-11-25T00:06:34.414Z,3.78
2022-11-25T00:09:11.746Z,4.50
2022-11-25T00:11:42.871Z,4.10
2022-11-25T00:14:15.612Z,3.78
2022-11-25T00:16:48.136Z,4.38
2022-11-25T00:19:16.911Z,3.67
2022-11-25T00:21:44.301Z,4.20
2022-11-25T00:24:17.662Z,3.97
2022-11-25T00:26:45.411Z,3.95
2022-11-25T00:29:14.245Z,4.57
2022-11-25T00:31:42.267Z,3.85
2022-11-25T00:34:14.713Z,3.83
2022-11-25T00:36:42.578Z,4.43
2022-11-25T00:39:18.573Z,4.82
2022-11-25T00:42:05.503Z,4.07
2022-11-25T00:44:35.894Z,4.20
2022-11-25T00:47:17.442Z,4.18
2022-11-25T00:49:52.697Z,4.50
2022-11-25T00:52:26.846Z,4.32
2022-11-25T00:54:55.140Z,4.80
2022-11-25T00:57:24.054Z,4.45
2022-11-25T00:59:51.614Z,4.78
2022-11-25T01:02:20.221Z,3.88
2022-11-25T01:04:47.895Z,4.22
2022-11-25T01:07:16.101Z,4.70
2022-11-25T01:09:44.310Z,4.75
2022-11-25T01:12:12.128Z,4.80
2022-11-25T01:14:39.742Z,4.40
2022-11-25T01:17:07.268Z,5.03
2022-11-25T01:19:38.386Z,4.35
2022-11-25T01:22:09.443Z,3.75
2022-11-25T01:24:36.946Z,5.32
2022-11-25T01:27:04.517Z,4.97
2022-11-25T01:29:31.881Z,4.35
2022-11-25T01:31:59.278Z,5.18
2022-11-25T01:34:28.585Z,4.00
2022-11-25T01:36:55.977Z,4.03
2022-11-25T01:39:32.065Z,5.18
2022-11-25T01:42:02.079Z,4.50
2022-11-25T01:44:33.075Z,4.45
2022-11-25T01:47:18.655Z,4.57
2022-11-25T01:50:05.194Z,5.07
2022-11-25T01:52:46.502Z,4.57
2022-11-25T01:55:23.583Z,4.72
2022-11-25T01:58:00.992Z,4.97
2022-11-25T02:00:28.494Z,5.38
2022-11-25T02:02:57.824Z,4.35
2022-11-25T02:06:08.983Z,4.28
2022-11-25T02:08:36.623Z,4.53
2022-11-25T02:11:04.787Z,4.22
2022-11-25T02:13:33.896Z,4.38
2022-11-25T02:16:01.359Z,4.80
2022-11-25T02:18:29.289Z,4.57
2022-11-25T02:20:56.692Z,4.80
2022-11-25T02:24:18.224Z,5.18
2022-11-25T02:26:45.874Z,4.15
2022-11-25T02:29:13.526Z,4.60
2022-11-25T02:31:40.878Z,4.60
2022-11-25T02:34:09.690Z,4.90
2022-11-25T02:36:37.372Z,5.20
2022-11-25T02:39:05.351Z,5.05
2022-11-25T02:41:44.498Z,5.07
2022-11-25T02:44:12.066Z,4.75
2022-11-25T02:46:39.566Z,5.35
2022-11-25T02:49:09.614Z,5.28
2022-11-25T02:51:42.020Z,5.28
2022-11-25T02:54:09.875Z,4.65
2022-11-25T09:06:12.305Z,9.20
2022-11-25T09:12:36.420Z,14.18
2022-11-25T09:19:33.787Z,15.38
2022-11-25T09:27:23.287Z,14.07
2022-11-25T09:36:33.499Z,14.75
2022-11-25T09:46:33.139Z,14.52
2022-11-25T09:49:52.304Z,13.85
2022-11-25T09:52:58.692Z,12.73
2022-11-25T09:55:30.634Z,12.95
2022-11-25T09:58:42.430Z,12.52
2022-11-25T10:01:26.174Z,11.65
2022-11-25T10:04:20.296Z,12.35
2022-11-25T10:06:58.259Z,11.23
2022-11-25T10:09:34.082Z,11.18
2022-11-25T10:12:32.539Z,10.38
2022-11-25T10:15:32.623Z,10.00
2022-11-25T10:18:42.409Z,10.18
2022-11-25T10:21:14.133Z,9.73
2022-11-25T10:23:41.500Z,10.65
2022-11-25T10:26:22.530Z,9.50
2022-11-25T10:29:14.736Z,9.25
2022-11-25T10:31:45.391Z,9.52
2022-11-25T10:37:26.140Z,8.40
2022-11-25T10:39:53.535Z,9.52
2022-11-25T10:42:27.414Z,8.80
2022-11-25T10:44:55.911Z,7.07
2022-11-25T10:48:28.727Z,7.75
2022-11-25T10:52:00.399Z,8.30
2022-11-25T10:54:29.665Z,5.60
2022-11-25T10:57:19.919Z,6.60
2022-11-25T11:00:01.775Z,6.32
2022-11-25T11:02:41.727Z,5.45
2022-11-25T11:05:08.869Z,5.10
2022-11-25T11:07:45.371Z,5.32
2022-11-25T11:10:26.639Z,4.43
2022-11-25T11:13:25.792Z,4.75
2022-11-25T11:15:54.861Z,4.72
2022-11-25T11:18:41.968Z,4.63
2022-11-25T11:21:35.864Z,4.55
2022-11-25T11:24:38.060Z,5.32
2022-11-25T11:27:25.723Z,4.70
2022-11-25T11:30:23.895Z,4.68
2022-11-25T11:33:36.767Z,4.78
2022-11-25T11:36:51.601Z,5.45
2022-11-25T11:40:02.931Z,5.13
2022-11-25T11:43:20.589Z,4.47
2022-11-25T11:46:30.517Z,5.53
2022-11-25T11:49:43.976Z,5.83
2022-11-25T11:53:05.786Z,4.80
2022-11-25T11:56:35.988Z,5.32
2022-11-25T11:59:55.850Z,5.55
2022-11-25T12:03:18.599Z,6.47
2022-11-25T12:05:48.201Z,7.15
2022-11-25T12:08:34.274Z,7.35
2022-11-25T12:11:13.533Z,6.70
2022-11-25T12:14:23.547Z,7.85
2022-11-25T12:16:59.243Z,7.47
2022-11-25T12:20:07.082Z,7.97
2022-11-25T12:23:43.836Z,8.90
2022-11-25T12:26:47.068Z,8.35
2022-11-25T12:29:44.109Z,8.50
2022-11-25T12:32:48.494Z,9.13
2022-11-25T12:35:34.000Z,7.85
2022-11-25T12:38:47.803Z,8.43
2022-11-25T12:41:59.613Z,8.32
2022-11-25T12:45:11.986Z,8.73
2022-11-25T12:47:39.258Z,7.97
2022-11-25T12:50:14.463Z,7.20
2022-11-25T12:53:11.750Z,8.38
2022-11-25T12:55:40.707Z,7.13
2022-11-25T12:59:33.630Z,6.30
2022-11-25T13:03:14.139Z,3.30
2022-11-25T13:06:27.133Z,3.08
2022-11-25T13:09:43.339Z,2.50
2022-11-25T13:13:01.646Z,1.80
2022-11-25T13:15:44.967Z,1.90
2022-11-25T13:18:29.082Z,2.60
2022-11-25T13:21:05.327Z,2.28
2022-11-25T13:23:57.305Z,2.92
2022-11-25T13:26:45.820Z,2.03
2022-11-25T13:29:12.847Z,2.28
2022-11-25T13:32:03.285Z,2.38
2022-11-25T13:34:34.296Z,2.45
2022-11-25T13:37:33.510Z,2.22
2022-11-25T13:40:39.129Z,2.47
2022-11-25T13:43:22.567Z,2.60
2022-11-25T13:45:50.221Z,2.60
2022-11-25T13:48:30.600Z,2.60
2022-11-25T13:51:24.819Z,2.15
2022-11-25T13:54:06.411Z,2.80
2022-11-25T13:56:37.517Z,2.55
2022-11-25T13:59:10.730Z,2.42
2022-11-25T14:01:46.690Z,2.67
2022-11-25T14:04:16.221Z,2.88
2022-11-25T14:07:27.998Z,3.33
2022-11-25T14:10:45.867Z,2.08
2022-11-25T14:14:04.135Z,1.77
2022-11-25T14:17:24.644Z,1.90
2022-11-25T14:20:23.059Z,2.08
2022-11-25T14:23:52.234Z,1.92
2022-11-25T14:26:49.647Z,2.53
2022-11-25T14:29:32.564Z,2.05
2022-11-25T14:32:23.108Z,2.20
2022-11-25T14:35:09.740Z,2.95
2022-11-25T14:38:07.739Z,2.30
2022-11-25T14:41:19.858Z,2.83
2022-11-25T14:44:04.663Z,2.25
2022-11-25T14:46:32.209Z,2.53
2022-11-25T14:49:07.700Z,2.85
2022-11-25T14:51:39.274Z,2.00
2022-11-25T14:54:10.392Z,2.10
2022-11-25T14:56:39.240Z,2.75
2022-11-25T14:59:10.482Z,2.05
2022-11-25T15:01:50.227Z,2.33
2022-11-25T15:04:25.407Z,2.80
2022-11-25T15:07:01.892Z,2.03
2022-11-25T15:09:42.258Z,2.63
2022-11-25T15:12:20.365Z,2.05
2022-11-25T15:14:55.714Z,2.20
2022-11-25T15:17:37.340Z,2.25
2022-11-25T15:20:17.576Z,2.58
2022-11-25T15:22:53.958Z,3.00
2022-11-25T15:25:21.571Z,2.90
2022-11-25T15:27:53.184Z,2.08
2022-11-25T15:30:31.835Z,2.70
2022-11-25T15:32:59.531Z,2.50
2022-11-25T15:35:27.955Z,2.67
2022-11-25T15:37:55.367Z,2.40
2022-11-25T15:40:44.374Z,3.05
2022-11-25T15:43:30.280Z,2.10
2022-11-25T15:46:05.789Z,3.20
2022-11-25T15:48:46.190Z,2.70
2022-11-25T15:51:48.447Z,2.55
2022-11-25T15:54:42.554Z,2.70
2022-11-25T15:57:37.426Z,2.67
2022-11-25T16:00:23.250Z,2.15
2022-11-25T16:02:59.570Z,2.40
2022-11-25T16:05:37.507Z,1.77
2022-11-25T16:08:33.753Z,2.17
2022-11-25T16:11:19.356Z,2.40
2022-11-25T16:13:50.372Z,2.22
2022-11-25T16:16:31.297Z,2.08
2022-11-25T16:19:16.624Z,2.03
2022-11-25T16:21:54.635Z,2.35
2022-11-25T16:24:41.765Z,2.13
2022-11-25T16:27:23.583Z,3.30
2022-11-25T16:30:20.370Z,2.47
2022-11-25T16:32:47.632Z,2.75
2022-11-25T16:35:22.176Z,2.67
2022-11-25T16:37:49.943Z,2.40
2022-11-25T16:40:19.145Z,2.38
2022-11-25T16:42:53.357Z,2.75
2022-11-25T16:45:28.272Z,2.30
2022-11-25T16:47:55.958Z,2.63
2022-11-25T16:50:24.035Z,2.67
2022-11-25T16:52:51.458Z,3.20
2022-11-25T16:55:19.011Z,3.42
2022-11-25T16:57:46.995Z,3.60
2022-11-25T17:00:18.100Z,2.78
2022-11-25T17:02:45.755Z,2.88
2022-11-25T17:05:25.675Z,2.50
2022-11-25T17:07:53.177Z,2.57
2022-11-25T17:10:21.632Z,4.13
2022-11-25T17:12:50.828Z,3.20
2022-11-25T17:15:35.941Z,2.38
2022-11-25T17:18:07.073Z,2.85
2022-11-25T17:20:34.946Z,2.88
2022-11-25T17:23:02.670Z,3.40
2022-11-25T17:25:36.536Z,3.20
2022-11-25T17:28:04.811Z,3.08
2022-11-25T17:30:32.497Z,3.05
2022-11-25T17:33:18.348Z,3.67
2022-11-25T17:35:46.400Z,2.95
2022-11-25T17:38:20.147Z,3.08
2022-11-25T17:40:47.916Z,2.95
2022-11-25T17:43:20.989Z,3.67
2022-11-25T17:45:48.344Z,2.83
2022-11-25T17:48:18.311Z,2.10
2022-11-25T17:50:46.875Z,2.67
2022-11-25T17:53:14.231Z,2.38
2022-11-25T17:55:42.009Z,3.65
2022-11-25T17:58:14.669Z,3.60
2022-11-25T18:00:44.924Z,2.67
2022-11-25T18:03:16.361Z,2.90
2022-11-25T18:05:44.014Z,3.45
2022-11-25T18:08:11.307Z,4.10
2022-11-25T18:10:39.619Z,4.30
2022-11-25T18:13:06.963Z,4.40
2022-11-25T18:15:34.886Z,3.78
2022-11-25T18:18:22.193Z,4.82
2022-11-25T18:20:50.856Z,3.97
2022-11-25T18:23:19.471Z,4.00
2022-11-25T18:25:47.407Z,3.80
2022-11-25T18:28:26.903Z,2.90
2022-11-25T18:30:58.430Z,3.08
2022-11-25T18:33:25.847Z,2.75
2022-11-25T18:35:53.134Z,2.63
2022-11-25T18:38:20.404Z,2.75
2022-11-25T18:40:53.299Z,2.78
2022-11-25T18:43:26.622Z,2.95
2022-11-25T18:45:54.404Z,2.30
2022-11-25T18:48:27.700Z,2.45
2022-11-25T18:50:57.043Z,2.95
2022-11-25T18:53:24.351Z,2.67
2022-11-25T18:55:52.168Z,3.35
